sensor_id;sensor_type;location;lat;lon;timestamp;temperature;humidity
10247;DHT22;5168;47.854;7.944;2023-04-25T00:01:11;3.30;99.90
10247;DHT22;5168;47.854;7.944;2023-04-25T00:06:05;3.40;99.90
10247;DHT22;5168;47.854;7.944;2023-04-25T00:08:32;3.70;99.90
10247;DHT22;5168;47.854;7.944;2023-04-25T00:10:58;3.90;99.90
10247;DHT22;5168;47.854;7.944;2023-04-25T00:13:24;3.50;99.90
10247;DHT22;5168;47.854;7.944;2023-04-25T00:15:51;3.80;99.90
10247;DHT22;5168;47.854;7.944;2023-04-25T00:18:16;3.30;99.90
10247;DHT22;5168;47.854;7.944;2023-04-25T00:25:37;3.80;99.90
10247;DHT22;5168;47.854;7.944;2023-04-25T00:35:21;3.80;99.90
10247;DHT22;5168;47.854;7.944;2023-04-25T00:37:47;3.40;99.90
10247;DHT22;5168;47.854;7.944;2023-04-25T00:40:12;3.40;99.90
10247;DHT22;5168;47.854;7.944;2023-04-25T00:42:38;3.50;99.90
10247;DHT22;5168;47.854;7.944;2023-04-25T00:45:06;3.40;99.90
10247;DHT22;5168;47.854;7.944;2023-04-25T00:47:33;3.40;99.90
10247;DHT22;5168;47.854;7.944;2023-04-25T00:57:16;3.30;99.90
10247;DHT22;5168;47.854;7.944;2023-04-25T00:59:45;3.40;99.90
10247;DHT22;5168;47.854;7.944;2023-04-25T01:04:36;3.10;99.90
10247;DHT22;5168;47.854;7.944;2023-04-25T01:07:02;3.80;99.90
10247;DHT22;5168;47.854;7.944;2023-04-25T01:09:30;3.30;99.90
10247;DHT22;5168;47.854;7.944;2023-04-25T01:14:23;3.30;99.90
10247;DHT22;5168;47.854;7.944;2023-04-25T01:16:48;3.20;99.90
10247;DHT22;5168;47.854;7.944;2023-04-25T01:19:16;3.10;99.90
10247;DHT22;5168;47.854;7.944;2023-04-25T01:21:42;3.20;99.90
10247;DHT22;5168;47.854;7.944;2023-04-25T01:26:35;3.20;99.90
10247;DHT22;5168;47.854;7.944;2023-04-25T01:29:01;3.50;99.90
10247;DHT22;5168;47.854;7.944;2023-04-25T01:31:27;3.30;99.90
10247;DHT22;5168;47.854;7.944;2023-04-25T01:33:53;2.90;99.90
10247;DHT22;5168;47.854;7.944;2023-04-25T01:36:19;3.10;99.90
10247;DHT22;5168;47.854;7.944;2023-04-25T01:38:46;3.10;99.90
10247;DHT22;5168;47.854;7.944;2023-04-25T01:50:57;3.00;99.90
10247;DHT22;5168;47.854;7.944;2023-04-25T01:53:23;3.10;99.90
10247;DHT22;5168;47.854;7.944;2023-04-25T01:55:49;2.80;99.90
10247;DHT22;5168;47.854;7.944;2023-04-25T01:58:14;2.90;99.90
10247;DHT22;5168;47.854;7.944;2023-04-25T02:00:40;3.30;99.90
10247;DHT22;5168;47.854;7.944;2023-04-25T02:03:06;3.70;99.90
10247;DHT22;5168;47.854;7.944;2023-04-25T02:05:39;3.60;99.90
10247;DHT22;5168;47.854;7.944;2023-04-25T02:08:08;3.40;99.90
10247;DHT22;5168;47.854;7.944;2023-04-25T02:20:21;3.00;99.90
10247;DHT22;5168;47.854;7.944;2023-04-25T02:30:05;2.90;99.90
10247;DHT22;5168;47.854;7.944;2023-04-25T02:32:32;3.00;99.90
10247;DHT22;5168;47.854;7.944;2023-04-25T02:37:29;2.60;99.90
10247;DHT22;5168;47.854;7.944;2023-04-25T02:39:55;2.90;99.90
10247;DHT22;5168;47.854;7.944;2023-04-25T02:44:46;2.80;99.90
10247;DHT22;5168;47.854;7.944;2023-04-25T02:54:30;2.50;99.90
10247;DHT22;5168;47.854;7.944;2023-04-25T02:56:56;2.40;99.90
10247;DHT22;5168;47.854;7.944;2023-04-25T02:59:21;2.70;99.90
10247;DHT22;5168;47.854;7.944;2023-04-25T03:01:47;2.60;99.90
10247;DHT22;5168;47.854;7.944;2023-04-25T03:06:38;2.30;99.90
10247;DHT22;5168;47.854;7.944;2023-04-25T03:09:04;2.10;99.90
10247;DHT22;5168;47.854;7.944;2023-04-25T03:11:29;2.30;99.90
10247;DHT22;5168;47.854;7.944;2023-04-25T03:16:21;2.40;99.90
10247;DHT22;5168;47.854;7.944;2023-04-25T03:21:14;2.50;99.90
10247;DHT22;5168;47.854;7.944;2023-04-25T03:23:40;2.50;99.90
10247;DHT22;5168;47.854;7.944;2023-04-25T03:33:23;2.30;99.90
10247;DHT22;5168;47.854;7.944;2023-04-25T03:35:49;2.30;99.90
10247;DHT22;5168;47.854;7.944;2023-04-25T03:38:15;2.30;99.90
10247;DHT22;5168;47.854;7.944;2023-04-25T03:40:41;2.00;99.90
10247;DHT22;5168;47.854;7.944;2023-04-25T03:50:24;2.10;99.90
10247;DHT22;5168;47.854;7.944;2023-04-25T03:52:50;2.00;99.90
10247;DHT22;5168;47.854;7.944;2023-04-25T03:57:41;1.90;99.90
10247;DHT22;5168;47.854;7.944;2023-04-25T04:00:07;1.90;99.90
10247;DHT22;5168;47.854;7.944;2023-04-25T04:02:33;2.50;99.90
10247;DHT22;5168;47.854;7.944;2023-04-25T04:05:00;1.10;99.90
10247;DHT22;5168;47.854;7.944;2023-04-25T04:12:17;1.60;99.90
10247;DHT22;5168;47.854;7.944;2023-04-25T04:14:43;1.90;99.90
10247;DHT22;5168;47.854;7.944;2023-04-25T04:19:34;1.60;99.90
10247;DHT22;5168;47.854;7.944;2023-04-25T04:26:52;2.00;99.90
10247;DHT22;5168;47.854;7.944;2023-04-25T04:29:18;1.80;99.90
10247;DHT22;5168;47.854;7.944;2023-04-25T04:31:50;1.80;99.90
10247;DHT22;5168;47.854;7.944;2023-04-25T04:34:18;1.90;99.90
10247;DHT22;5168;47.854;7.944;2023-04-25T04:36:47;1.80;99.90
10247;DHT22;5168;47.854;7.944;2023-04-25T04:44:05;1.90;99.90
10247;DHT22;5168;47.854;7.944;2023-04-25T04:46:32;1.90;99.90
10247;DHT22;5168;47.854;7.944;2023-04-25T04:49:06;2.00;99.90
10247;DHT22;5168;47.854;7.944;2023-04-25T04:53:58;2.10;99.90
10247;DHT22;5168;47.854;7.944;2023-04-25T04:56:28;1.40;99.90
10247;DHT22;5168;47.854;7.944;2023-04-25T04:58:54;2.20;99.90
10247;DHT22;5168;47.854;7.944;2023-04-25T05:03:47;2.20;99.90
10247;DHT22;5168;47.854;7.944;2023-04-25T05:18:22;2.30;99.90
10247;DHT22;5168;47.854;7.944;2023-04-25T05:20:48;2.60;99.90
10247;DHT22;5168;47.854;7.944;2023-04-25T05:23:13;2.40;99.90
10247;DHT22;5168;47.854;7.944;2023-04-25T05:28:05;2.80;99.90
10247;DHT22;5168;47.854;7.944;2023-04-25T05:30:31;3.40;99.90
10247;DHT22;5168;47.854;7.944;2023-04-25T05:32:56;2.60;99.90
10247;DHT22;5168;47.854;7.944;2023-04-25T05:35:22;2.90;99.90
10247;DHT22;5168;47.854;7.944;2023-04-25T05:37:47;2.70;99.90
10247;DHT22;5168;47.854;7.944;2023-04-25T05:40:13;2.50;99.90
10247;DHT22;5168;47.854;7.944;2023-04-25T05:42:39;2.30;99.90
10247;DHT22;5168;47.854;7.944;2023-04-25T05:45:05;2.40;99.90
10247;DHT22;5168;47.854;7.944;2023-04-25T05:49:57;2.10;99.90
10247;DHT22;5168;47.854;7.944;2023-04-25T05:57:22;1.80;99.90
10247;DHT22;5168;47.854;7.944;2023-04-25T05:59:48;1.80;99.90
10247;DHT22;5168;47.854;7.944;2023-04-25T06:02:14;1.80;99.90
10247;DHT22;5168;47.854;7.944;2023-04-25T06:14:23;1.30;99.90
10247;DHT22;5168;47.854;7.944;2023-04-25T06:19:14;1.10;99.90
10247;DHT22;5168;47.854;7.944;2023-04-25T06:31:24;1.40;99.90
10247;DHT22;5168;47.854;7.944;2023-04-25T06:36:20;1.30;99.90
10247;DHT22;5168;47.854;7.944;2023-04-25T06:38:52;1.20;99.90
10247;DHT22;5168;47.854;7.944;2023-04-25T06:41:18;1.30;99.90
10247;DHT22;5168;47.854;7.944;2023-04-25T06:43:44;1.30;99.90
10247;DHT22;5168;47.854;7.944;2023-04-25T06:46:09;1.20;99.90
10247;DHT22;5168;47.854;7.944;2023-04-25T06:48:36;1.40;99.90
10247;DHT22;5168;47.854;7.944;2023-04-25T07:00:45;1.50;99.90
10247;DHT22;5168;47.854;7.944;2023-04-25T07:05:37;1.50;99.90
10247;DHT22;5168;47.854;7.944;2023-04-25T07:08:03;1.20;99.90
10247;DHT22;5168;47.854;7.944;2023-04-25T07:10:29;1.50;99.90
10247;DHT22;5168;47.854;7.944;2023-04-25T07:22:38;1.20;99.90
10247;DHT22;5168;47.854;7.944;2023-04-25T07:25:04;1.30;99.90
10247;DHT22;5168;47.854;7.944;2023-04-25T07:27:30;2.10;99.90
10247;DHT22;5168;47.854;7.944;2023-04-25T07:29:56;1.40;99.90
10247;DHT22;5168;47.854;7.944;2023-04-25T07:32:22;1.70;99.90
10247;DHT22;5168;47.854;7.944;2023-04-25T07:34:48;1.70;99.90
10247;DHT22;5168;47.854;7.944;2023-04-25T07:44:34;2.70;99.90
10247;DHT22;5168;47.854;7.944;2023-04-25T07:47:06;2.10;99.90
10247;DHT22;5168;47.854;7.944;2023-04-25T07:49:33;1.90;99.90
10247;DHT22;5168;47.854;7.944;2023-04-25T07:52:00;2.40;99.90
10247;DHT22;5168;47.854;7.944;2023-04-25T07:54:25;2.30;99.90
10247;DHT22;5168;47.854;7.944;2023-04-25T07:56:51;2.50;99.90
10247;DHT22;5168;47.854;7.944;2023-04-25T07:59:17;2.70;99.90
10247;DHT22;5168;47.854;7.944;2023-04-25T08:06:34;2.40;99.90
10247;DHT22;5168;47.854;7.944;2023-04-25T08:09:00;2.40;99.90
10247;DHT22;5168;47.854;7.944;2023-04-25T08:11:25;2.60;99.90
10247;DHT22;5168;47.854;7.944;2023-04-25T08:18:43;2.80;99.90
10247;DHT22;5168;47.854;7.944;2023-04-25T08:23:36;2.60;99.90
10247;DHT22;5168;47.854;7.944;2023-04-25T08:26:02;3.60;99.90
10247;DHT22;5168;47.854;7.944;2023-04-25T08:35:46;3.60;99.90
10247;DHT22;5168;47.854;7.944;2023-04-25T08:38:11;2.90;99.90
10247;DHT22;5168;47.854;7.944;2023-04-25T08:40:38;2.90;99.90
10247;DHT22;5168;47.854;7.944;2023-04-25T08:43:06;3.20;99.90
10247;DHT22;5168;47.854;7.944;2023-04-25T08:45:40;3.50;99.90
10247;DHT22;5168;47.854;7.944;2023-04-25T08:48:11;3.20;99.90
10247;DHT22;5168;47.854;7.944;2023-04-25T08:50:50;3.40;99.90
10247;DHT22;5168;47.854;7.944;2023-04-25T08:53:27;3.50;99.90
10247;DHT22;5168;47.854;7.944;2023-04-25T08:55:54;3.60;99.90
10247;DHT22;5168;47.854;7.944;2023-04-25T08:58:21;3.40;99.90
10247;DHT22;5168;47.854;7.944;2023-04-25T09:00:48;3.50;99.90
10247;DHT22;5168;47.854;7.944;2023-04-25T09:03:15;3.60;99.90
10247;DHT22;5168;47.854;7.944;2023-04-25T09:05:41;3.50;99.90
10247;DHT22;5168;47.854;7.944;2023-04-25T09:08:07;3.40;99.90
10247;DHT22;5168;47.854;7.944;2023-04-25T09:10:33;3.50;99.90
10247;DHT22;5168;47.854;7.944;2023-04-25T09:13:14;3.30;99.90
10247;DHT22;5168;47.854;7.944;2023-04-25T09:15:50;3.30;99.90
10247;DHT22;5168;47.854;7.944;2023-04-25T09:18:27;3.50;99.90
10247;DHT22;5168;47.854;7.944;2023-04-25T09:20:54;3.70;99.90
10247;DHT22;5168;47.854;7.944;2023-04-25T09:23:21;3.80;99.90
10247;DHT22;5168;47.854;7.944;2023-04-25T09:25:48;4.10;99.90
10247;DHT22;5168;47.854;7.944;2023-04-25T09:28:14;3.90;99.90
10247;DHT22;5168;47.854;7.944;2023-04-25T09:30:39;4.10;99.90
10247;DHT22;5168;47.854;7.944;2023-04-25T09:33:06;3.80;99.90
10247;DHT22;5168;47.854;7.944;2023-04-25T09:35:42;4.80;99.90
10247;DHT22;5168;47.854;7.944;2023-04-25T09:38:14;4.20;99.90
10247;DHT22;5168;47.854;7.944;2023-04-25T09:40:45;4.20;99.90
10247;DHT22;5168;47.854;7.944;2023-04-25T09:43:22;4.00;99.90
10247;DHT22;5168;47.854;7.944;2023-04-25T09:45:48;4.70;99.90
10247;DHT22;5168;47.854;7.944;2023-04-25T09:48:21;4.40;99.90
10247;DHT22;5168;47.854;7.944;2023-04-25T09:51:09;4.00;99.90
10247;DHT22;5168;47.854;7.944;2023-04-25T09:53:39;4.10;99.90
10247;DHT22;5168;47.854;7.944;2023-04-25T09:56:07;4.20;99.90
10247;DHT22;5168;47.854;7.944;2023-04-25T09:58:34;4.20;99.90
10247;DHT22;5168;47.854;7.944;2023-04-25T10:01:02;3.90;99.90
10247;DHT22;5168;47.854;7.944;2023-04-25T10:03:33;3.60;99.90
10247;DHT22;5168;47.854;7.944;2023-04-25T10:06:08;3.70;99.90
10247;DHT22;5168;47.854;7.944;2023-04-25T10:08:37;3.40;99.90
10247;DHT22;5168;47.854;7.944;2023-04-25T10:11:07;3.50;99.90
10247;DHT22;5168;47.854;7.944;2023-04-25T10:13:34;3.50;99.90
10247;DHT22;5168;47.854;7.944;2023-04-25T10:16:01;3.50;99.90
10247;DHT22;5168;47.854;7.944;2023-04-25T10:18:28;3.50;99.90
10247;DHT22;5168;47.854;7.944;2023-04-25T10:20:59;4.00;99.90
10247;DHT22;5168;47.854;7.944;2023-04-25T10:25:51;3.70;99.90
10247;DHT22;5168;47.854;7.944;2023-04-25T10:28:18;3.70;99.90
10247;DHT22;5168;47.854;7.944;2023-04-25T10:31:03;4.10;99.90
10247;DHT22;5168;47.854;7.944;2023-04-25T10:33:40;3.60;99.90
10247;DHT22;5168;47.854;7.944;2023-04-25T10:36:12;3.80;99.90
10247;DHT22;5168;47.854;7.944;2023-04-25T10:38:38;3.50;99.90
10247;DHT22;5168;47.854;7.944;2023-04-25T10:41:05;3.70;99.90
10247;DHT22;5168;47.854;7.944;2023-04-25T10:43:38;3.30;99.90
10247;DHT22;5168;47.854;7.944;2023-04-25T10:48:56;4.10;99.90
10247;DHT22;5168;47.854;7.944;2023-04-25T10:51:22;4.30;99.90
10247;DHT22;5168;47.854;7.944;2023-04-25T10:53:58;4.10;99.90
10247;DHT22;5168;47.854;7.944;2023-04-25T10:56:38;4.30;99.90
10247;DHT22;5168;47.854;7.944;2023-04-25T10:59:11;4.40;99.90
10247;DHT22;5168;47.854;7.944;2023-04-25T11:01:39;4.20;99.90
10247;DHT22;5168;47.854;7.944;2023-04-25T11:04:05;4.60;99.90
10247;DHT22;5168;47.854;7.944;2023-04-25T11:06:51;5.20;99.90
10247;DHT22;5168;47.854;7.944;2023-04-25T11:09:23;6.60;99.90
10247;DHT22;5168;47.854;7.944;2023-04-25T11:11:59;7.70;99.90
10247;DHT22;5168;47.854;7.944;2023-04-25T11:16:56;9.30;99.90
10247;DHT22;5168;47.854;7.944;2023-04-25T11:19:22;9.50;99.90
10247;DHT22;5168;47.854;7.944;2023-04-25T11:21:48;9.50;99.90
10247;DHT22;5168;47.854;7.944;2023-04-25T11:24:16;9.50;99.90
10247;DHT22;5168;47.854;7.944;2023-04-25T11:26:43;9.20;99.90
10247;DHT22;5168;47.854;7.944;2023-04-25T11:29:08;9.00;99.90
10247;DHT22;5168;47.854;7.944;2023-04-25T11:38:53;9.00;99.90
10247;DHT22;5168;47.854;7.944;2023-04-25T11:41:20;8.60;99.90
10247;DHT22;5168;47.854;7.944;2023-04-25T11:43:47;8.20;99.90
10247;DHT22;5168;47.854;7.944;2023-04-25T11:46:14;7.80;99.90
10247;DHT22;5168;47.854;7.944;2023-04-25T11:48:41;7.70;99.90
10247;DHT22;5168;47.854;7.944;2023-04-25T11:51:07;7.60;99.90
10247;DHT22;5168;47.854;7.944;2023-04-25T11:53:33;7.60;99.90
10247;DHT22;5168;47.854;7.944;2023-04-25T11:55:59;7.40;99.90
10247;DHT22;5168;47.854;7.944;2023-04-25T11:58:25;7.00;99.90
10247;DHT22;5168;47.854;7.944;2023-04-25T12:00:51;6.60;99.90
10247;DHT22;5168;47.854;7.944;2023-04-25T12:03:18;6.70;99.90
10247;DHT22;5168;47.854;7.944;2023-04-25T12:05:44;6.70;99.90
10247;DHT22;5168;47.854;7.944;2023-04-25T12:08:12;6.80;99.90
10247;DHT22;5168;47.854;7.944;2023-04-25T12:10:39;6.70;99.90
10247;DHT22;5168;47.854;7.944;2023-04-25T12:13:20;6.90;99.90
10247;DHT22;5168;47.854;7.944;2023-04-25T12:15:45;6.80;99.90
10247;DHT22;5168;47.854;7.944;2023-04-25T12:18:11;6.50;99.90
10247;DHT22;5168;47.854;7.944;2023-04-25T12:20:36;6.60;99.90
10247;DHT22;5168;47.854;7.944;2023-04-25T12:23:05;6.70;99.90
10247;DHT22;5168;47.854;7.944;2023-04-25T12:25:39;6.30;99.90
10247;DHT22;5168;47.854;7.944;2023-04-25T12:28:12;7.30;99.90
10247;DHT22;5168;47.854;7.944;2023-04-25T12:31:06;8.80;99.90
10247;DHT22;5168;47.854;7.944;2023-04-25T12:33:38;9.50;99.90
10247;DHT22;5168;47.854;7.944;2023-04-25T12:36:06;8.60;99.90
10247;DHT22;5168;47.854;7.944;2023-04-25T12:38:41;8.80;99.90
10247;DHT22;5168;47.854;7.944;2023-04-25T12:41:07;9.10;99.90
10247;DHT22;5168;47.854;7.944;2023-04-25T12:43:33;9.20;99.90
10247;DHT22;5168;47.854;7.944;2023-04-25T12:45:59;8.40;99.90
10247;DHT22;5168;47.854;7.944;2023-04-25T12:48:24;7.60;99.90
10247;DHT22;5168;47.854;7.944;2023-04-25T12:50:51;7.80;99.90
10247;DHT22;5168;47.854;7.944;2023-04-25T12:53:18;7.00;99.90
10247;DHT22;5168;47.854;7.944;2023-04-25T12:55:44;7.20;99.90
10247;DHT22;5168;47.854;7.944;2023-04-25T12:58:15;7.10;99.90
10247;DHT22;5168;47.854;7.944;2023-04-25T13:00:41;6.50;99.90
10247;DHT22;5168;47.854;7.944;2023-04-25T13:03:07;6.90;99.90
10247;DHT22;5168;47.854;7.944;2023-04-25T13:05:33;6.70;99.90
10247;DHT22;5168;47.854;7.944;2023-04-25T13:10:24;7.20;99.90
10247;DHT22;5168;47.854;7.944;2023-04-25T13:12:50;7.00;99.90
10247;DHT22;5168;47.854;7.944;2023-04-25T13:15:16;6.80;99.90
10247;DHT22;5168;47.854;7.944;2023-04-25T13:17:42;6.50;99.90
10247;DHT22;5168;47.854;7.944;2023-04-25T13:20:08;6.60;99.90
10247;DHT22;5168;47.854;7.944;2023-04-25T13:22:38;6.90;99.90
10247;DHT22;5168;47.854;7.944;2023-04-25T13:25:06;6.60;99.90
10247;DHT22;5168;47.854;7.944;2023-04-25T13:29:59;6.50;99.90
10247;DHT22;5168;47.854;7.944;2023-04-25T13:32:25;7.10;99.90
10247;DHT22;5168;47.854;7.944;2023-04-25T13:34:51;7.40;99.90
10247;DHT22;5168;47.854;7.944;2023-04-25T13:37:18;7.90;99.90
10247;DHT22;5168;47.854;7.944;2023-04-25T13:39:43;7.70;99.90
10247;DHT22;5168;47.854;7.944;2023-04-25T13:42:09;7.90;99.90
10247;DHT22;5168;47.854;7.944;2023-04-25T13:47:00;8.20;99.90
10247;DHT22;5168;47.854;7.944;2023-04-25T13:51:52;8.30;99.90
10247;DHT22;5168;47.854;7.944;2023-04-25T13:54:18;8.20;99.90
10247;DHT22;5168;47.854;7.944;2023-04-25T14:01:36;9.00;99.90
10247;DHT22;5168;47.854;7.944;2023-04-25T14:04:02;9.00;99.90
10247;DHT22;5168;47.854;7.944;2023-04-25T14:06:31;9.30;99.90
10247;DHT22;5168;47.854;7.944;2023-04-25T14:08:57;9.40;99.90
10247;DHT22;5168;47.854;7.944;2023-04-25T14:11:23;9.60;99.90
10247;DHT22;5168;47.854;7.944;2023-04-25T14:13:48;10.00;99.90
10247;DHT22;5168;47.854;7.944;2023-04-25T14:23:32;11.10;99.90
10247;DHT22;5168;47.854;7.944;2023-04-25T14:25:57;10.90;99.90
10247;DHT22;5168;47.854;7.944;2023-04-25T14:28:23;10.30;99.90
10247;DHT22;5168;47.854;7.944;2023-04-25T14:33:14;9.30;99.90
10247;DHT22;5168;47.854;7.944;2023-04-25T14:35:40;9.20;99.90
10247;DHT22;5168;47.854;7.944;2023-04-25T14:38:05;9.00;99.90
10247;DHT22;5168;47.854;7.944;2023-04-25T14:42:57;8.50;99.90
10247;DHT22;5168;47.854;7.944;2023-04-25T14:45:22;7.90;99.90
10247;DHT22;5168;47.854;7.944;2023-04-25T14:47:48;7.70;99.90
10247;DHT22;5168;47.854;7.944;2023-04-25T14:57:33;6.70;99.90
10247;DHT22;5168;47.854;7.944;2023-04-25T14:59:58;6.60;99.90
10247;DHT22;5168;47.854;7.944;2023-04-25T15:02:24;6.40;99.90
10247;DHT22;5168;47.854;7.944;2023-04-25T15:04:51;5.80;99.90
10247;DHT22;5168;47.854;7.944;2023-04-25T15:19:27;4.90;99.90
10247;DHT22;5168;47.854;7.944;2023-04-25T15:21:53;7.00;99.90
10247;DHT22;5168;47.854;7.944;2023-04-25T15:26:45;4.70;99.90
10247;DHT22;5168;47.854;7.944;2023-04-25T15:29:11;4.90;99.90
10247;DHT22;5168;47.854;7.944;2023-04-25T15:31:37;4.60;99.90
10247;DHT22;5168;47.854;7.944;2023-04-25T15:34:03;4.60;99.90
10247;DHT22;5168;47.854;7.944;2023-04-25T15:36:29;4.70;99.90
10247;DHT22;5168;47.854;7.944;2023-04-25T15:38:54;4.50;99.90
10247;DHT22;5168;47.854;7.944;2023-04-25T15:41:21;4.50;99.90
10247;DHT22;5168;47.854;7.944;2023-04-25T15:43:47;5.60;99.90
10247;DHT22;5168;47.854;7.944;2023-04-25T15:46:13;4.50;99.90
10247;DHT22;5168;47.854;7.944;2023-04-25T15:51:05;4.30;99.90
10247;DHT22;5168;47.854;7.944;2023-04-25T15:55:57;4.40;99.90
10247;DHT22;5168;47.854;7.944;2023-04-25T16:03:16;4.30;99.90
10247;DHT22;5168;47.854;7.944;2023-04-25T16:08:07;3.80;99.90
10247;DHT22;5168;47.854;7.944;2023-04-25T16:15:25;3.80;99.90
10247;DHT22;5168;47.854;7.944;2023-04-25T16:17:51;3.70;99.90
10247;DHT22;5168;47.854;7.944;2023-04-25T16:20:17;3.80;99.90
10247;DHT22;5168;47.854;7.944;2023-04-25T16:22:42;3.90;99.90
10247;DHT22;5168;47.854;7.944;2023-04-25T16:25:09;3.80;99.90
10247;DHT22;5168;47.854;7.944;2023-04-25T16:27:35;3.90;99.90
10247;DHT22;5168;47.854;7.944;2023-04-25T16:30:08;3.70;99.90
10247;DHT22;5168;47.854;7.944;2023-04-25T16:35:01;3.80;99.90
10247;DHT22;5168;47.854;7.944;2023-04-25T16:42:18;4.20;99.90
10247;DHT22;5168;47.854;7.944;2023-04-25T16:44:44;4.30;99.90
10247;DHT22;5168;47.854;7.944;2023-04-25T16:47:09;4.70;99.90
10247;DHT22;5168;47.854;7.944;2023-04-25T16:59:19;4.60;99.90
10247;DHT22;5168;47.854;7.944;2023-04-25T17:01:45;4.40;99.90
10247;DHT22;5168;47.854;7.944;2023-04-25T17:04:10;4.40;99.90
10247;DHT22;5168;47.854;7.944;2023-04-25T17:11:29;3.90;99.90
10247;DHT22;5168;47.854;7.944;2023-04-25T17:18:50;3.80;99.90
10247;DHT22;5168;47.854;7.944;2023-04-25T17:21:16;4.00;99.90
10247;DHT22;5168;47.854;7.944;2023-04-25T17:23:43;3.60;99.90
10247;DHT22;5168;47.854;7.944;2023-04-25T17:26:13;3.20;99.90
10247;DHT22;5168;47.854;7.944;2023-04-25T17:28:39;3.70;99.90
10247;DHT22;5168;47.854;7.944;2023-04-25T17:31:06;4.00;99.90
10247;DHT22;5168;47.854;7.944;2023-04-25T17:33:32;4.20;99.90
10247;DHT22;5168;47.854;7.944;2023-04-25T17:35:58;3.80;99.90
10247;DHT22;5168;47.854;7.944;2023-04-25T17:45:42;3.60;99.90
10247;DHT22;5168;47.854;7.944;2023-04-25T17:53:00;4.00;99.90
10247;DHT22;5168;47.854;7.944;2023-04-25T17:55:28;3.70;99.90
10247;DHT22;5168;47.854;7.944;2023-04-25T17:57:55;3.60;99.90
10247;DHT22;5168;47.854;7.944;2023-04-25T18:00:20;3.20;99.90
10247;DHT22;5168;47.854;7.944;2023-04-25T18:02:46;3.20;99.90
10247;DHT22;5168;47.854;7.944;2023-04-25T18:05:13;3.30;99.90
10247;DHT22;5168;47.854;7.944;2023-04-25T18:07:39;3.10;99.90
10247;DHT22;5168;47.854;7.944;2023-04-25T18:10:07;3.60;99.90
10247;DHT22;5168;47.854;7.944;2023-04-25T18:12:36;3.50;99.90
10247;DHT22;5168;47.854;7.944;2023-04-25T18:15:03;3.60;99.90
10247;DHT22;5168;47.854;7.944;2023-04-25T18:22:26;3.30;99.90
10247;DHT22;5168;47.854;7.944;2023-04-25T18:24:52;3.10;99.90
10247;DHT22;5168;47.854;7.944;2023-04-25T18:27:18;3.40;99.90
10247;DHT22;5168;47.854;7.944;2023-04-25T18:41:54;3.40;99.90
10247;DHT22;5168;47.854;7.944;2023-04-25T18:44:21;3.00;99.90
10247;DHT22;5168;47.854;7.944;2023-04-25T18:51:38;3.30;99.90
10247;DHT22;5168;47.854;7.944;2023-04-25T18:54:04;3.00;99.90
10247;DHT22;5168;47.854;7.944;2023-04-25T18:56:32;2.90;99.90
10247;DHT22;5168;47.854;7.944;2023-04-25T18:58:57;3.00;99.90
10247;DHT22;5168;47.854;7.944;2023-04-25T19:01:24;3.00;99.90
10247;DHT22;5168;47.854;7.944;2023-04-25T19:06:26;2.90;99.90
10247;DHT22;5168;47.854;7.944;2023-04-25T19:08:54;2.90;99.90
10247;DHT22;5168;47.854;7.944;2023-04-25T19:11:20;2.90;99.90
10247;DHT22;5168;47.854;7.944;2023-04-25T19:13:47;3.00;99.90
10247;DHT22;5168;47.854;7.944;2023-04-25T19:16:13;3.00;99.90
10247;DHT22;5168;47.854;7.944;2023-04-25T19:18:38;3.20;99.90
10247;DHT22;5168;47.854;7.944;2023-04-25T19:23:32;2.70;99.90
10247;DHT22;5168;47.854;7.944;2023-04-25T19:25:57;3.20;99.90
10247;DHT22;5168;47.854;7.944;2023-04-25T19:28:24;3.10;99.90
10247;DHT22;5168;47.854;7.944;2023-04-25T19:33:16;3.10;99.90
10247;DHT22;5168;47.854;7.944;2023-04-25T19:35:42;2.60;99.90
10247;DHT22;5168;47.854;7.944;2023-04-25T19:38:07;3.30;99.90
10247;DHT22;5168;47.854;7.944;2023-04-25T19:42:59;3.20;99.90
10247;DHT22;5168;47.854;7.944;2023-04-25T19:45:24;3.40;99.90
10247;DHT22;5168;47.854;7.944;2023-04-25T19:47:51;3.10;99.90
10247;DHT22;5168;47.854;7.944;2023-04-25T19:50:17;3.00;99.90
10247;DHT22;5168;47.854;7.944;2023-04-25T19:52:42;3.00;99.90
10247;DHT22;5168;47.854;7.944;2023-04-25T19:55:08;3.10;99.90
10247;DHT22;5168;47.854;7.944;2023-04-25T19:57:35;2.90;99.90
10247;DHT22;5168;47.854;7.944;2023-04-25T20:00:07;3.10;99.90
10247;DHT22;5168;47.854;7.944;2023-04-25T20:02:35;3.30;99.90
10247;DHT22;5168;47.854;7.944;2023-04-25T20:07:27;3.10;99.90
10247;DHT22;5168;47.854;7.944;2023-04-25T20:29:22;3.20;99.90
10247;DHT22;5168;47.854;7.944;2023-04-25T20:31:48;3.20;99.90
10247;DHT22;5168;47.854;7.944;2023-04-25T20:34:18;3.20;99.90
10247;DHT22;5168;47.854;7.944;2023-04-25T20:46:35;3.30;99.90
10247;DHT22;5168;47.854;7.944;2023-04-25T20:51:30;3.10;99.90
10247;DHT22;5168;47.854;7.944;2023-04-25T20:53:55;3.00;99.90
10247;DHT22;5168;47.854;7.944;2023-04-25T20:56:24;3.40;99.90
10247;DHT22;5168;47.854;7.944;2023-04-25T21:13:29;3.20;99.90
10247;DHT22;5168;47.854;7.944;2023-04-25T21:15:55;3.20;99.90
10247;DHT22;5168;47.854;7.944;2023-04-25T21:18:21;2.70;99.90
10247;DHT22;5168;47.854;7.944;2023-04-25T21:20:46;3.00;99.90
10247;DHT22;5168;47.854;7.944;2023-04-25T21:30:30;3.10;99.90
10247;DHT22;5168;47.854;7.944;2023-04-25T21:32:57;2.90;99.90
10247;DHT22;5168;47.854;7.944;2023-04-25T21:42:41;2.60;99.90
10247;DHT22;5168;47.854;7.944;2023-04-25T21:45:08;3.00;99.90
10247;DHT22;5168;47.854;7.944;2023-04-25T21:47:34;2.80;99.90
10247;DHT22;5168;47.854;7.944;2023-04-25T21:50:00;2.80;99.90
10247;DHT22;5168;47.854;7.944;2023-04-25T21:52:26;2.80;99.90
10247;DHT22;5168;47.854;7.944;2023-04-25T21:54:53;3.10;99.90
10247;DHT22;5168;47.854;7.944;2023-04-25T21:57:19;3.10;99.90
10247;DHT22;5168;47.854;7.944;2023-04-25T21:59:46;3.10;99.90
10247;DHT22;5168;47.854;7.944;2023-04-25T22:09:30;3.00;99.90
10247;DHT22;5168;47.854;7.944;2023-04-25T22:14:22;3.60;99.90
10247;DHT22;5168;47.854;7.944;2023-04-25T22:16:49;2.90;99.90
10247;DHT22;5168;47.854;7.944;2023-04-25T22:19:15;3.00;99.90
10247;DHT22;5168;47.854;7.944;2023-04-25T22:21:41;2.90;99.90
10247;DHT22;5168;47.854;7.944;2023-04-25T22:24:07;2.60;99.90
10247;DHT22;5168;47.854;7.944;2023-04-25T22:26:33;2.40;99.90
10247;DHT22;5168;47.854;7.944;2023-04-25T22:28:59;2.80;99.90
10247;DHT22;5168;47.854;7.944;2023-04-25T22:31:26;2.60;99.90
10247;DHT22;5168;47.854;7.944;2023-04-25T22:33:52;2.70;99.90
10247;DHT22;5168;47.854;7.944;2023-04-25T22:38:44;2.60;99.90
10247;DHT22;5168;47.854;7.944;2023-04-25T22:43:38;2.30;99.90
10247;DHT22;5168;47.854;7.944;2023-04-25T22:46:17;2.50;99.90
10247;DHT22;5168;47.854;7.944;2023-04-25T22:48:43;2.40;99.90
10247;DHT22;5168;47.854;7.944;2023-04-25T22:51:10;2.40;99.90
10247;DHT22;5168;47.854;7.944;2023-04-25T22:53:36;2.20;99.90
10247;DHT22;5168;47.854;7.944;2023-04-25T22:56:04;2.30;99.90
10247;DHT22;5168;47.854;7.944;2023-04-25T23:03:23;2.30;99.90
10247;DHT22;5168;47.854;7.944;2023-04-25T23:10:42;1.60;99.90
10247;DHT22;5168;47.854;7.944;2023-04-25T23:13:08;2.10;99.90
10247;DHT22;5168;47.854;7.944;2023-04-25T23:15:33;2.20;99.90
10247;DHT22;5168;47.854;7.944;2023-04-25T23:20:26;1.90;99.90
10247;DHT22;5168;47.854;7.944;2023-04-25T23:25:19;2.20;99.90
10247;DHT22;5168;47.854;7.944;2023-04-25T23:27:44;2.00;99.90
10247;DHT22;5168;47.854;7.944;2023-04-25T23:30:10;2.10;99.90
10247;DHT22;5168;47.854;7.944;2023-04-25T23:32:37;2.10;99.90
10247;DHT22;5168;47.854;7.944;2023-04-25T23:35:03;2.10;99.90